sensor_id;sensor_type;location;lat;lon;timestamp;temperature;humidity
53053;DHT22;38934;52.690;6.184;2022-11-15T00:02:09;8.00;99.90
53053;DHT22;38934;52.690;6.184;2022-11-15T00:04:34;6.90;99.90
53053;DHT22;38934;52.690;6.184;2022-11-15T00:07:00;6.90;99.90
53053;DHT22;38934;52.690;6.184;2022-11-15T00:09:25;7.50;99.90
53053;DHT22;38934;52.690;6.184;2022-11-15T00:11:51;6.90;99.90
53053;DHT22;38934;52.690;6.184;2022-11-15T00:14:17;7.00;99.90
53053;DHT22;38934;52.690;6.184;2022-11-15T00:16:42;7.00;99.90
53053;DHT22;38934;52.690;6.184;2022-11-15T00:19:08;7.00;99.90
53053;DHT22;38934;52.690;6.184;2022-11-15T00:21:33;7.00;99.90
53053;DHT22;38934;52.690;6.184;2022-11-15T00:23:59;7.00;99.90
53053;DHT22;38934;52.690;6.184;2022-11-15T00:26:24;7.20;99.90
53053;DHT22;38934;52.690;6.184;2022-11-15T00:28:51;7.90;99.90
53053;DHT22;38934;52.690;6.184;2022-11-15T00:31:17;7.00;99.90
53053;DHT22;38934;52.690;6.184;2022-11-15T00:33:43;7.60;99.90
53053;DHT22;38934;52.690;6.184;2022-11-15T00:36:08;7.00;99.90
53053;DHT22;38934;52.690;6.184;2022-11-15T00:38:35;7.00;99.90
53053;DHT22;38934;52.690;6.184;2022-11-15T00:41:01;7.00;99.90
53053;DHT22;38934;52.690;6.184;2022-11-15T00:43:27;6.90;99.90
53053;DHT22;38934;52.690;6.184;2022-11-15T00:45:53;7.70;99.90
53053;DHT22;38934;52.690;6.184;2022-11-15T00:48:18;7.30;99.90
53053;DHT22;38934;52.690;6.184;2022-11-15T00:50:44;6.90;99.90
53053;DHT22;38934;52.690;6.184;2022-11-15T00:53:09;8.00;99.90
53053;DHT22;38934;52.690;6.184;2022-11-15T00:55:35;7.00;99.90
53053;DHT22;38934;52.690;6.184;2022-11-15T00:58:01;7.00;99.90
53053;DHT22;38934;52.690;6.184;2022-11-15T01:00:26;7.00;99.90
53053;DHT22;38934;52.690;6.184;2022-11-15T01:02:52;7.60;99.90
53053;DHT22;38934;52.690;6.184;2022-11-15T01:05:17;6.90;99.90
53053;DHT22;38934;52.690;6.184;2022-11-15T01:07:43;6.90;99.90
53053;DHT22;38934;52.690;6.184;2022-11-15T01:10:08;7.00;99.90
53053;DHT22;38934;52.690;6.184;2022-11-15T01:12:34;7.00;99.90
53053;DHT22;38934;52.690;6.184;2022-11-15T01:15:00;7.00;99.90
53053;DHT22;38934;52.690;6.184;2022-11-15T01:17:25;7.00;99.90
53053;DHT22;38934;52.690;6.184;2022-11-15T01:19:51;7.10;99.90
53053;DHT22;38934;52.690;6.184;2022-11-15T01:22:17;7.80;99.90
53053;DHT22;38934;52.690;6.184;2022-11-15T01:24:42;8.00;99.90
53053;DHT22;38934;52.690;6.184;2022-11-15T01:27:08;7.10;99.90
53053;DHT22;38934;52.690;6.184;2022-11-15T01:29:33;7.10;99.90
53053;DHT22;38934;52.690;6.184;2022-11-15T01:31:59;8.10;99.90
53053;DHT22;38934;52.690;6.184;2022-11-15T01:34:25;8.20;99.90
53053;DHT22;38934;52.690;6.184;2022-11-15T01:36:50;7.80;99.90
53053;DHT22;38934;52.690;6.184;2022-11-15T01:39:16;7.10;99.90
53053;DHT22;38934;52.690;6.184;2022-11-15T01:41:42;6.50;99.90
53053;DHT22;38934;52.690;6.184;2022-11-15T01:46:51;7.10;99.90
53053;DHT22;38934;52.690;6.184;2022-11-15T01:49:18;7.10;99.90
53053;DHT22;38934;52.690;6.184;2022-11-15T01:51:44;7.50;99.90
53053;DHT22;38934;52.690;6.184;2022-11-15T01:54:11;7.90;99.90
53053;DHT22;38934;52.690;6.184;2022-11-15T01:56:40;7.80;99.90
53053;DHT22;38934;52.690;6.184;2022-11-15T01:59:07;7.10;99.90
53053;DHT22;38934;52.690;6.184;2022-11-15T02:01:33;7.20;99.90
53053;DHT22;38934;52.690;6.184;2022-11-15T02:04:21;7.20;99.90
53053;DHT22;38934;52.690;6.184;2022-11-15T02:06:45;7.20;99.90
53053;DHT22;38934;52.690;6.184;2022-11-15T02:09:12;7.20;99.90
53053;DHT22;38934;52.690;6.184;2022-11-15T02:11:38;7.20;99.90
53053;DHT22;38934;52.690;6.184;2022-11-15T02:14:03;7.20;99.90
53053;DHT22;38934;52.690;6.184;2022-11-15T02:19:02;7.30;99.90
53053;DHT22;38934;52.690;6.184;2022-11-15T02:21:40;7.30;99.90
53053;DHT22;38934;52.690;6.184;2022-11-15T02:29:19;7.30;99.90
53053;DHT22;38934;52.690;6.184;2022-11-15T02:31:54;7.70;99.90
53053;DHT22;38934;52.690;6.184;2022-11-15T02:34:25;7.40;99.90
53053;DHT22;38934;52.690;6.184;2022-11-15T02:42:05;7.40;99.90
53053;DHT22;38934;52.690;6.184;2022-11-15T02:44:52;7.40;99.90
53053;DHT22;38934;52.690;6.184;2022-11-15T02:47:20;7.60;99.90
53053;DHT22;38934;52.690;6.184;2022-11-15T02:49:47;7.50;99.90
53053;DHT22;38934;52.690;6.184;2022-11-15T02:52:16;7.50;99.90
53053;DHT22;38934;52.690;6.184;2022-11-15T02:54:42;7.60;99.90
53053;DHT22;38934;52.690;6.184;2022-11-15T02:57:11;7.60;99.90
53053;DHT22;38934;52.690;6.184;2022-11-15T03:02:10;7.70;99.90
53053;DHT22;38934;52.690;6.184;2022-11-15T03:07:29;7.70;99.90
53053;DHT22;38934;52.690;6.184;2022-11-15T03:12:33;7.70;99.90
53053;DHT22;38934;52.690;6.184;2022-11-15T03:15:00;7.80;99.90
53053;DHT22;38934;52.690;6.184;2022-11-15T03:17:30;7.80;99.90
53053;DHT22;38934;52.690;6.184;2022-11-15T03:20:01;7.80;99.90
53053;DHT22;38934;52.690;6.184;2022-11-15T03:22:29;7.80;99.90
53053;DHT22;38934;52.690;6.184;2022-11-15T03:24:58;7.90;99.90
53053;DHT22;38934;52.690;6.184;2022-11-15T03:27:26;7.90;99.90
53053;DHT22;38934;52.690;6.184;2022-11-15T03:29:55;7.90;99.90
53053;DHT22;38934;52.690;6.184;2022-11-15T03:32:31;8.30;99.90
53053;DHT22;38934;52.690;6.184;2022-11-15T03:35:00;8.00;99.90
53053;DHT22;38934;52.690;6.184;2022-11-15T03:37:32;8.00;99.90
53053;DHT22;38934;52.690;6.184;2022-11-15T03:39:59;8.00;99.90
53053;DHT22;38934;52.690;6.184;2022-11-15T03:42:35;8.10;99.90
53053;DHT22;38934;52.690;6.184;2022-11-15T03:45:22;8.10;99.90
53053;DHT22;38934;52.690;6.184;2022-11-15T03:47:53;8.10;99.90
53053;DHT22;38934;52.690;6.184;2022-11-15T03:50:20;8.10;99.90
53053;DHT22;38934;52.690;6.184;2022-11-15T03:52:46;8.20;99.90
53053;DHT22;38934;52.690;6.184;2022-11-15T03:55:13;8.20;99.90
53053;DHT22;38934;52.690;6.184;2022-11-15T03:57:39;8.20;99.90
53053;DHT22;38934;52.690;6.184;2022-11-15T04:00:04;8.20;99.90
53053;DHT22;38934;52.690;6.184;2022-11-15T04:02:30;8.20;99.90
53053;DHT22;38934;52.690;6.184;2022-11-15T04:04:56;8.30;99.90
53053;DHT22;38934;52.690;6.184;2022-11-15T04:07:21;8.30;99.90
53053;DHT22;38934;52.690;6.184;2022-11-15T04:09:47;9.10;99.90
53053;DHT22;38934;52.690;6.184;2022-11-15T04:12:35;8.90;99.90
53053;DHT22;38934;52.690;6.184;2022-11-15T04:15:03;8.40;99.90
53053;DHT22;38934;52.690;6.184;2022-11-15T04:17:32;8.40;99.90
53053;DHT22;38934;52.690;6.184;2022-11-15T04:19:58;8.40;99.90
53053;DHT22;38934;52.690;6.184;2022-11-15T04:22:42;8.50;99.90
53053;DHT22;38934;52.690;6.184;2022-11-15T04:25:26;8.50;99.90
53053;DHT22;38934;52.690;6.184;2022-11-15T04:27:51;8.80;99.90
53053;DHT22;38934;52.690;6.184;2022-11-15T04:30:17;8.50;99.90
53053;DHT22;38934;52.690;6.184;2022-11-15T04:32:42;8.60;99.90
53053;DHT22;38934;52.690;6.184;2022-11-15T04:35:08;8.60;99.90
53053;DHT22;38934;52.690;6.184;2022-11-15T04:37:34;8.60;99.90
53053;DHT22;38934;52.690;6.184;2022-11-15T04:39:59;8.60;99.90
53053;DHT22;38934;52.690;6.184;2022-11-15T04:42:24;8.60;99.90
53053;DHT22;38934;52.690;6.184;2022-11-15T04:44:50;8.60;99.90
53053;DHT22;38934;52.690;6.184;2022-11-15T04:47:15;8.60;99.90
53053;DHT22;38934;52.690;6.184;2022-11-15T04:49:43;8.70;99.90
53053;DHT22;38934;52.690;6.184;2022-11-15T04:52:09;8.70;99.90
53053;DHT22;38934;52.690;6.184;2022-11-15T04:54:34;8.70;99.90
53053;DHT22;38934;52.690;6.184;2022-11-15T04:57:00;8.70;99.90
53053;DHT22;38934;52.690;6.184;2022-11-15T04:59:25;8.80;99.90
53053;DHT22;38934;52.690;6.184;2022-11-15T05:01:57;8.80;99.90
53053;DHT22;38934;52.690;6.184;2022-11-15T05:04:22;8.80;99.90
53053;DHT22;38934;52.690;6.184;2022-11-15T05:06:48;8.80;99.90
53053;DHT22;38934;52.690;6.184;2022-11-15T05:09:15;8.80;99.90
53053;DHT22;38934;52.690;6.184;2022-11-15T05:11:40;8.80;99.90
53053;DHT22;38934;52.690;6.184;2022-11-15T05:14:06;8.90;99.90
53053;DHT22;38934;52.690;6.184;2022-11-15T05:16:31;8.90;99.90
53053;DHT22;38934;52.690;6.184;2022-11-15T05:18:56;8.90;99.90
53053;DHT22;38934;52.690;6.184;2022-11-15T05:21:22;9.50;99.90
53053;DHT22;38934;52.690;6.184;2022-11-15T05:23:47;9.50;99.90
53053;DHT22;38934;52.690;6.184;2022-11-15T05:26:13;9.00;99.90
53053;DHT22;38934;52.690;6.184;2022-11-15T05:28:40;9.90;99.90
53053;DHT22;38934;52.690;6.184;2022-11-15T05:31:15;9.00;99.90
53053;DHT22;38934;52.690;6.184;2022-11-15T05:33:41;9.10;99.90
53053;DHT22;38934;52.690;6.184;2022-11-15T05:36:10;9.00;99.90
53053;DHT22;38934;52.690;6.184;2022-11-15T05:38:37;9.10;99.90
53053;DHT22;38934;52.690;6.184;2022-11-15T05:41:03;9.20;99.90
53053;DHT22;38934;52.690;6.184;2022-11-15T05:43:29;9.20;99.90
53053;DHT22;38934;52.690;6.184;2022-11-15T05:45:56;9.20;99.90
53053;DHT22;38934;52.690;6.184;2022-11-15T05:48:22;9.20;99.90
53053;DHT22;38934;52.690;6.184;2022-11-15T05:50:48;9.20;99.90
53053;DHT22;38934;52.690;6.184;2022-11-15T05:53:14;9.20;99.90
53053;DHT22;38934;52.690;6.184;2022-11-15T05:55:41;9.30;99.90
53053;DHT22;38934;52.690;6.184;2022-11-15T05:58:06;9.30;99.90
53053;DHT22;38934;52.690;6.184;2022-11-15T06:00:32;9.70;99.90
53053;DHT22;38934;52.690;6.184;2022-11-15T06:02:57;9.30;99.90
53053;DHT22;38934;52.690;6.184;2022-11-15T06:05:23;9.40;99.90
53053;DHT22;38934;52.690;6.184;2022-11-15T06:07:48;9.40;99.90
53053;DHT22;38934;52.690;6.184;2022-11-15T06:10:14;9.40;99.90
53053;DHT22;38934;52.690;6.184;2022-11-15T06:12:39;9.40;99.90
53053;DHT22;38934;52.690;6.184;2022-11-15T06:15:06;9.40;99.90
53053;DHT22;38934;52.690;6.184;2022-11-15T06:17:32;9.50;99.90
53053;DHT22;38934;52.690;6.184;2022-11-15T06:19:57;10.10;99.90
53053;DHT22;38934;52.690;6.184;2022-11-15T06:22:23;9.50;99.90
53053;DHT22;38934;52.690;6.184;2022-11-15T06:24:48;9.50;99.90
53053;DHT22;38934;52.690;6.184;2022-11-15T06:27:15;10.00;99.90
53053;DHT22;38934;52.690;6.184;2022-11-15T06:29:40;9.50;99.90
53053;DHT22;38934;52.690;6.184;2022-11-15T06:32:06;9.50;99.90
53053;DHT22;38934;52.690;6.184;2022-11-15T06:34:32;10.10;99.90
53053;DHT22;38934;52.690;6.184;2022-11-15T06:36:57;9.60;99.90
53053;DHT22;38934;52.690;6.184;2022-11-15T06:39:23;9.60;99.90
53053;DHT22;38934;52.690;6.184;2022-11-15T06:41:48;9.50;99.90
53053;DHT22;38934;52.690;6.184;2022-11-15T06:44:14;9.50;99.90
53053;DHT22;38934;52.690;6.184;2022-11-15T06:46:39;9.60;99.90
53053;DHT22;38934;52.690;6.184;2022-11-15T06:49:05;9.80;99.90
53053;DHT22;38934;52.690;6.184;2022-11-15T06:51:30;9.70;99.90
53053;DHT22;38934;52.690;6.184;2022-11-15T06:53:56;9.60;99.90
53053;DHT22;38934;52.690;6.184;2022-11-15T06:56:21;9.70;99.90
53053;DHT22;38934;52.690;6.184;2022-11-15T06:58:48;9.70;99.90
53053;DHT22;38934;52.690;6.184;2022-11-15T07:01:14;9.70;99.90
53053;DHT22;38934;52.690;6.184;2022-11-15T07:03:40;9.70;99.90
53053;DHT22;38934;52.690;6.184;2022-11-15T07:06:06;9.70;99.90
53053;DHT22;38934;52.690;6.184;2022-11-15T07:08:32;9.70;99.90
53053;DHT22;38934;52.690;6.184;2022-11-15T07:10:59;9.70;99.90
53053;DHT22;38934;52.690;6.184;2022-11-15T07:13:26;9.70;99.90
53053;DHT22;38934;52.690;6.184;2022-11-15T07:15:51;9.80;99.90
53053;DHT22;38934;52.690;6.184;2022-11-15T07:18:17;9.80;99.90
53053;DHT22;38934;52.690;6.184;2022-11-15T07:20:43;9.90;99.90
53053;DHT22;38934;52.690;6.184;2022-11-15T07:23:08;9.80;99.90
53053;DHT22;38934;52.690;6.184;2022-11-15T07:25:34;9.80;99.90
53053;DHT22;38934;52.690;6.184;2022-11-15T07:28:00;9.90;99.90
53053;DHT22;38934;52.690;6.184;2022-11-15T07:30:25;9.90;99.90
53053;DHT22;38934;52.690;6.184;2022-11-15T07:32:52;9.80;99.90
53053;DHT22;38934;52.690;6.184;2022-11-15T07:35:17;9.90;99.90
53053;DHT22;38934;52.690;6.184;2022-11-15T07:37:43;9.90;99.90
53053;DHT22;38934;52.690;6.184;2022-11-15T07:40:08;10.00;99.90
53053;DHT22;38934;52.690;6.184;2022-11-15T07:42:34;9.90;99.90
53053;DHT22;38934;52.690;6.184;2022-11-15T07:45:18;9.90;99.90
53053;DHT22;38934;52.690;6.184;2022-11-15T07:47:47;9.90;99.90
53053;DHT22;38934;52.690;6.184;2022-11-15T07:50:13;9.90;99.90
53053;DHT22;38934;52.690;6.184;2022-11-15T07:52:39;9.90;99.90
53053;DHT22;38934;52.690;6.184;2022-11-15T07:55:04;10.00;99.90
53053;DHT22;38934;52.690;6.184;2022-11-15T07:57:30;10.00;99.90
53053;DHT22;38934;52.690;6.184;2022-11-15T07:59:56;10.00;99.90
53053;DHT22;38934;52.690;6.184;2022-11-15T08:02:22;10.00;99.90
53053;DHT22;38934;52.690;6.184;2022-11-15T08:04:48;10.00;99.90
53053;DHT22;38934;52.690;6.184;2022-11-15T08:07:13;10.00;99.90
53053;DHT22;38934;52.690;6.184;2022-11-15T08:09:39;10.10;99.90
53053;DHT22;38934;52.690;6.184;2022-11-15T08:12:04;10.10;99.90
53053;DHT22;38934;52.690;6.184;2022-11-15T08:14:30;10.20;99.90
53053;DHT22;38934;52.690;6.184;2022-11-15T08:16:55;10.20;99.90
53053;DHT22;38934;52.690;6.184;2022-11-15T08:19:21;10.30;99.90
53053;DHT22;38934;52.690;6.184;2022-11-15T08:21:46;10.30;99.90
53053;DHT22;38934;52.690;6.184;2022-11-15T08:24:12;10.40;99.90
53053;DHT22;38934;52.690;6.184;2022-11-15T08:26:37;10.40;99.90
53053;DHT22;38934;52.690;6.184;2022-11-15T08:29:03;10.40;99.90
53053;DHT22;38934;52.690;6.184;2022-11-15T08:31:28;10.40;99.90
53053;DHT22;38934;52.690;6.184;2022-11-15T08:33:54;10.80;99.90
53053;DHT22;38934;52.690;6.184;2022-11-15T08:36:19;10.40;99.90
53053;DHT22;38934;52.690;6.184;2022-11-15T08:38:45;11.00;99.90
53053;DHT22;38934;52.690;6.184;2022-11-15T08:41:12;11.30;99.90
53053;DHT22;38934;52.690;6.184;2022-11-15T08:43:38;10.50;99.90
53053;DHT22;38934;52.690;6.184;2022-11-15T08:46:04;10.50;99.90
53053;DHT22;38934;52.690;6.184;2022-11-15T08:48:29;10.50;99.90
53053;DHT22;38934;52.690;6.184;2022-11-15T08:50:55;10.50;99.90
53053;DHT22;38934;52.690;6.184;2022-11-15T08:53:21;10.50;99.90
53053;DHT22;38934;52.690;6.184;2022-11-15T08:55:47;10.60;99.90
53053;DHT22;38934;52.690;6.184;2022-11-15T08:58:12;10.60;99.90
53053;DHT22;38934;52.690;6.184;2022-11-15T09:00:38;10.70;99.90
53053;DHT22;38934;52.690;6.184;2022-11-15T09:03:04;10.70;99.90
53053;DHT22;38934;52.690;6.184;2022-11-15T09:05:30;10.70;99.90
53053;DHT22;38934;52.690;6.184;2022-11-15T09:07:55;10.80;99.90
53053;DHT22;38934;52.690;6.184;2022-11-15T09:10:22;10.80;99.90
53053;DHT22;38934;52.690;6.184;2022-11-15T09:12:47;10.80;99.90
53053;DHT22;38934;52.690;6.184;2022-11-15T09:15:14;11.40;99.90
53053;DHT22;38934;52.690;6.184;2022-11-15T09:17:40;10.90;99.90
53053;DHT22;38934;52.690;6.184;2022-11-15T09:20:05;10.90;99.90
53053;DHT22;38934;52.690;6.184;2022-11-15T09:22:31;10.90;99.90
53053;DHT22;38934;52.690;6.184;2022-11-15T09:24:56;10.90;99.90
53053;DHT22;38934;52.690;6.184;2022-11-15T09:27:22;10.90;99.90
53053;DHT22;38934;52.690;6.184;2022-11-15T09:29:47;11.60;99.90
53053;DHT22;38934;52.690;6.184;2022-11-15T09:32:13;11.00;99.90
53053;DHT22;38934;52.690;6.184;2022-11-15T09:34:38;11.00;99.90
53053;DHT22;38934;52.690;6.184;2022-11-15T09:37:04;11.00;99.90
53053;DHT22;38934;52.690;6.184;2022-11-15T09:39:29;11.00;99.90
53053;DHT22;38934;52.690;6.184;2022-11-15T09:41:58;11.00;99.90
53053;DHT22;38934;52.690;6.184;2022-11-15T09:49:30;11.10;99.90
53053;DHT22;38934;52.690;6.184;2022-11-15T09:51:56;11.20;99.90
53053;DHT22;38934;52.690;6.184;2022-11-15T09:54:33;11.90;99.90
53053;DHT22;38934;52.690;6.184;2022-11-15T10:04:35;11.20;99.90
53053;DHT22;38934;52.690;6.184;2022-11-15T10:07:02;11.30;99.90
53053;DHT22;38934;52.690;6.184;2022-11-15T10:09:33;11.30;99.90
53053;DHT22;38934;52.690;6.184;2022-11-15T10:11:59;11.30;99.90
53053;DHT22;38934;52.690;6.184;2022-11-15T10:14:25;11.30;99.90
53053;DHT22;38934;52.690;6.184;2022-11-15T10:24:39;11.50;99.90
53053;DHT22;38934;52.690;6.184;2022-11-15T10:27:12;12.40;99.90
53053;DHT22;38934;52.690;6.184;2022-11-15T10:29:48;11.60;99.90
53053;DHT22;38934;52.690;6.184;2022-11-15T10:32:15;11.60;99.90
53053;DHT22;38934;52.690;6.184;2022-11-15T10:34:41;11.70;99.90
53053;DHT22;38934;52.690;6.184;2022-11-15T10:37:07;11.70;99.90
53053;DHT22;38934;52.690;6.184;2022-11-15T10:39:32;11.70;99.90
53053;DHT22;38934;52.690;6.184;2022-11-15T10:44:45;11.70;99.90
53053;DHT22;38934;52.690;6.184;2022-11-15T10:47:30;11.80;99.90
53053;DHT22;38934;52.690;6.184;2022-11-15T10:49:57;11.70;99.90
53053;DHT22;38934;52.690;6.184;2022-11-15T10:52:23;11.70;99.90
53053;DHT22;38934;52.690;6.184;2022-11-15T10:57:16;11.70;99.90
53053;DHT22;38934;52.690;6.184;2022-11-15T10:59:45;11.90;99.90
53053;DHT22;38934;52.690;6.184;2022-11-15T11:02:24;11.70;99.90
53053;DHT22;38934;52.690;6.184;2022-11-15T11:04:52;11.80;99.90
53053;DHT22;38934;52.690;6.184;2022-11-15T11:07:22;11.90;99.90
53053;DHT22;38934;52.690;6.184;2022-11-15T11:09:56;11.90;99.90
53053;DHT22;38934;52.690;6.184;2022-11-15T11:12:27;11.90;99.90
53053;DHT22;38934;52.690;6.184;2022-11-15T11:14:53;12.70;99.90
53053;DHT22;38934;52.690;6.184;2022-11-15T11:20:44;12.10;99.90
53053;DHT22;38934;52.690;6.184;2022-11-15T11:30:40;12.00;99.90
53053;DHT22;38934;52.690;6.184;2022-11-15T11:38:34;12.20;99.90
53053;DHT22;38934;52.690;6.184;2022-11-15T11:41:10;12.30;99.90
53053;DHT22;38934;52.690;6.184;2022-11-15T11:48:52;12.50;99.90
53053;DHT22;38934;52.690;6.184;2022-11-15T11:51:31;12.40;99.90
53053;DHT22;38934;52.690;6.184;2022-11-15T11:56:50;12.50;99.90
53053;DHT22;38934;52.690;6.184;2022-11-15T11:59:23;12.60;99.90
53053;DHT22;38934;52.690;6.184;2022-11-15T12:01:50;12.60;99.90
53053;DHT22;38934;52.690;6.184;2022-11-15T12:06:49;12.60;99.90
53053;DHT22;38934;52.690;6.184;2022-11-15T12:09:20;12.60;99.90
53053;DHT22;38934;52.690;6.184;2022-11-15T12:14:34;12.70;99.90
53053;DHT22;38934;52.690;6.184;2022-11-15T12:17:01;12.70;99.90
53053;DHT22;38934;52.690;6.184;2022-11-15T12:19:27;12.60;99.90
53053;DHT22;38934;52.690;6.184;2022-11-15T12:24:30;12.60;99.90
53053;DHT22;38934;52.690;6.184;2022-11-15T12:29:55;12.60;99.90
53053;DHT22;38934;52.690;6.184;2022-11-15T12:32:26;12.70;99.90
53053;DHT22;38934;52.690;6.184;2022-11-15T12:34:52;12.60;99.90
53053;DHT22;38934;52.690;6.184;2022-11-15T12:40:14;12.60;99.90
53053;DHT22;38934;52.690;6.184;2022-11-15T12:47:49;12.50;99.90
53053;DHT22;38934;52.690;6.184;2022-11-15T12:50:15;12.50;99.90
53053;DHT22;38934;52.690;6.184;2022-11-15T12:53:09;12.40;99.90
53053;DHT22;38934;52.690;6.184;2022-11-15T12:55:30;12.80;99.90
53053;DHT22;38934;52.690;6.184;2022-11-15T12:57:56;12.30;99.90
53053;DHT22;38934;52.690;6.184;2022-11-15T13:00:41;12.20;99.90
53053;DHT22;38934;52.690;6.184;2022-11-15T13:03:16;12.30;99.90
53053;DHT22;38934;52.690;6.184;2022-11-15T13:08:07;12.10;99.90
53053;DHT22;38934;52.690;6.184;2022-11-15T13:10:33;12.00;99.90
53053;DHT22;38934;52.690;6.184;2022-11-15T13:13:02;12.00;99.90
53053;DHT22;38934;52.690;6.184;2022-11-15T13:17:57;11.90;99.90
53053;DHT22;38934;52.690;6.184;2022-11-15T13:20:27;11.90;99.90
53053;DHT22;38934;52.690;6.184;2022-11-15T13:23:15;11.90;99.90
53053;DHT22;38934;52.690;6.184;2022-11-15T13:30:39;11.80;99.90
53053;DHT22;38934;52.690;6.184;2022-11-15T13:33:14;12.10;99.90
53053;DHT22;38934;52.690;6.184;2022-11-15T13:35:41;11.80;99.90
53053;DHT22;38934;52.690;6.184;2022-11-15T13:38:11;11.80;99.90
53053;DHT22;38934;52.690;6.184;2022-11-15T13:40:42;11.80;99.90
53053;DHT22;38934;52.690;6.184;2022-11-15T13:43:23;11.70;99.90
53053;DHT22;38934;52.690;6.184;2022-11-15T13:48:31;11.70;99.90
53053;DHT22;38934;52.690;6.184;2022-11-15T13:50:59;11.60;99.90
53053;DHT22;38934;52.690;6.184;2022-11-15T13:53:25;11.60;99.90
53053;DHT22;38934;52.690;6.184;2022-11-15T13:55:50;11.60;99.90
53053;DHT22;38934;52.690;6.184;2022-11-15T13:58:17;11.90;99.90
53053;DHT22;38934;52.690;6.184;2022-11-15T14:00:43;11.50;99.90
53053;DHT22;38934;52.690;6.184;2022-11-15T14:05:40;11.40;99.90
53053;DHT22;38934;52.690;6.184;2022-11-15T14:10:41;11.40;99.90
53053;DHT22;38934;52.690;6.184;2022-11-15T14:13:10;11.40;99.90
53053;DHT22;38934;52.690;6.184;2022-11-15T14:15:37;11.40;99.90
53053;DHT22;38934;52.690;6.184;2022-11-15T14:18:03;11.40;99.90
53053;DHT22;38934;52.690;6.184;2022-11-15T14:20:38;11.40;99.90
53053;DHT22;38934;52.690;6.184;2022-11-15T14:23:05;11.40;99.90
53053;DHT22;38934;52.690;6.184;2022-11-15T14:25:31;11.90;99.90
53053;DHT22;38934;52.690;6.184;2022-11-15T14:30:38;11.30;99.90
53053;DHT22;38934;52.690;6.184;2022-11-15T14:35:49;11.30;99.90
53053;DHT22;38934;52.690;6.184;2022-11-15T14:38:14;11.30;99.90
53053;DHT22;38934;52.690;6.184;2022-11-15T14:40:40;11.20;99.90
53053;DHT22;38934;52.690;6.184;2022-11-15T14:43:08;11.20;99.90
53053;DHT22;38934;52.690;6.184;2022-11-15T14:45:34;11.10;99.90
53053;DHT22;38934;52.690;6.184;2022-11-15T14:47:59;11.80;99.90
53053;DHT22;38934;52.690;6.184;2022-11-15T14:50:25;11.10;99.90
53053;DHT22;38934;52.690;6.184;2022-11-15T14:52:51;11.10;99.90
53053;DHT22;38934;52.690;6.184;2022-11-15T14:55:24;11.10;99.90
53053;DHT22;38934;52.690;6.184;2022-11-15T14:57:50;11.00;99.90
53053;DHT22;38934;52.690;6.184;2022-11-15T15:00:16;11.00;99.90
53053;DHT22;38934;52.690;6.184;2022-11-15T15:02:42;11.00;99.90
53053;DHT22;38934;52.690;6.184;2022-11-15T15:07:40;10.90;99.90
53053;DHT22;38934;52.690;6.184;2022-11-15T15:10:05;10.80;99.90
53053;DHT22;38934;52.690;6.184;2022-11-15T15:12:31;10.80;99.90
53053;DHT22;38934;52.690;6.184;2022-11-15T15:14:56;11.50;99.90
53053;DHT22;38934;52.690;6.184;2022-11-15T15:17:22;10.80;99.90
53053;DHT22;38934;52.690;6.184;2022-11-15T15:19:47;10.70;99.90
53053;DHT22;38934;52.690;6.184;2022-11-15T15:22:17;10.60;99.90
53053;DHT22;38934;52.690;6.184;2022-11-15T15:24:43;10.60;99.90
53053;DHT22;38934;52.690;6.184;2022-11-15T15:27:09;10.60;99.90
53053;DHT22;38934;52.690;6.184;2022-11-15T15:29:35;10.70;99.90
53053;DHT22;38934;52.690;6.184;2022-11-15T15:32:00;11.40;99.90
53053;DHT22;38934;52.690;6.184;2022-11-15T15:34:26;10.50;99.90
53053;DHT22;38934;52.690;6.184;2022-11-15T15:39:36;10.40;99.90
53053;DHT22;38934;52.690;6.184;2022-11-15T15:42:01;10.40;99.90
53053;DHT22;38934;52.690;6.184;2022-11-15T15:44:27;10.30;99.90
53053;DHT22;38934;52.690;6.184;2022-11-15T15:46:52;10.20;99.90
53053;DHT22;38934;52.690;6.184;2022-11-15T15:49:18;10.20;99.90
53053;DHT22;38934;52.690;6.184;2022-11-15T15:51:43;10.20;99.90
53053;DHT22;38934;52.690;6.184;2022-11-15T15:54:09;10.20;99.90
53053;DHT22;38934;52.690;6.184;2022-11-15T15:56:34;10.30;99.90
53053;DHT22;38934;52.690;6.184;2022-11-15T15:59:00;10.80;99.90
53053;DHT22;38934;52.690;6.184;2022-11-15T16:01:25;10.40;99.90
53053;DHT22;38934;52.690;6.184;2022-11-15T16:03:51;11.20;99.90
53053;DHT22;38934;52.690;6.184;2022-11-15T16:06:49;10.50;99.90
53053;DHT22;38934;52.690;6.184;2022-11-15T16:09:13;10.50;99.90
53053;DHT22;38934;52.690;6.184;2022-11-15T16:11:39;10.50;99.90
53053;DHT22;38934;52.690;6.184;2022-11-15T16:14:05;10.60;99.90
53053;DHT22;38934;52.690;6.184;2022-11-15T16:16:31;10.60;99.90
53053;DHT22;38934;52.690;6.184;2022-11-15T16:18:56;10.60;99.90
53053;DHT22;38934;52.690;6.184;2022-11-15T16:21:22;10.60;99.90
53053;DHT22;38934;52.690;6.184;2022-11-15T16:23:47;10.60;99.90
53053;DHT22;38934;52.690;6.184;2022-11-15T16:26:29;10.60;99.90
53053;DHT22;38934;52.690;6.184;2022-11-15T16:28:55;10.70;99.90
53053;DHT22;38934;52.690;6.184;2022-11-15T16:31:20;10.90;99.90
53053;DHT22;38934;52.690;6.184;2022-11-15T16:33:48;10.70;99.90
53053;DHT22;38934;52.690;6.184;2022-11-15T16:36:18;10.70;99.90
53053;DHT22;38934;52.690;6.184;2022-11-15T16:38:43;10.60;99.90
53053;DHT22;38934;52.690;6.184;2022-11-15T16:41:10;10.70;99.90
53053;DHT22;38934;52.690;6.184;2022-11-15T16:43:35;10.70;99.90
53053;DHT22;38934;52.690;6.184;2022-11-15T16:46:12;10.70;99.90
53053;DHT22;38934;52.690;6.184;2022-11-15T16:48:38;10.70;99.90
53053;DHT22;38934;52.690;6.184;2022-11-15T16:51:04;10.70;99.90
53053;DHT22;38934;52.690;6.184;2022-11-15T16:53:30;10.70;99.90
53053;DHT22;38934;52.690;6.184;2022-11-15T16:55:55;10.70;99.90
53053;DHT22;38934;52.690;6.184;2022-11-15T16:58:21;10.70;99.90
53053;DHT22;38934;52.690;6.184;2022-11-15T17:00:50;10.70;99.90
53053;DHT22;38934;52.690;6.184;2022-11-15T17:03:16;10.70;99.90
53053;DHT22;38934;52.690;6.184;2022-11-15T17:05:41;10.80;99.90
53053;DHT22;38934;52.690;6.184;2022-11-15T17:08:07;10.80;99.90
53053;DHT22;38934;52.690;6.184;2022-11-15T17:10:32;10.70;99.90
53053;DHT22;38934;52.690;6.184;2022-11-15T17:12:58;10.70;99.90
53053;DHT22;38934;52.690;6.184;2022-11-15T17:15:23;10.70;99.90
53053;DHT22;38934;52.690;6.184;2022-11-15T17:17:50;10.70;99.90
53053;DHT22;38934;52.690;6.184;2022-11-15T17:20:16;10.70;99.90
53053;DHT22;38934;52.690;6.184;2022-11-15T17:22:42;10.70;99.90
53053;DHT22;38934;52.690;6.184;2022-11-15T17:25:08;10.70;99.90
53053;DHT22;38934;52.690;6.184;2022-11-15T17:27:34;10.70;99.90
53053;DHT22;38934;52.690;6.184;2022-11-15T17:29:59;10.70;99.90
53053;DHT22;38934;52.690;6.184;2022-11-15T17:32:24;10.80;99.90
53053;DHT22;38934;52.690;6.184;2022-11-15T17:34:50;10.80;99.90
53053;DHT22;38934;52.690;6.184;2022-11-15T17:37:15;10.80;99.90
53053;DHT22;38934;52.690;6.184;2022-11-15T17:39:41;10.80;99.90